createdAt,value
2023-01-18T00:01:25.381Z,71.65
2023-01-18T00:03:52.923Z,72.17
2023-01-18T00:06:19.451Z,71.56
2023-01-18T00:08:46.062Z,71.85
2023-01-18T00:11:15.915Z,72.19
2023-01-18T00:13:43.584Z,72.48
2023-01-18T00:16:21.819Z,72.38
2023-01-18T00:18:58.867Z,71.93
2023-01-18T00:21:27.618Z,71.87
2023-01-18T00:23:57.279Z,72.08
2023-01-18T00:26:23.825Z,72.08
2023-01-18T00:28:50.578Z,71.82
2023-01-18T00:31:19.692Z,71.33
2023-01-18T00:33:48.504Z,71.07
2023-01-18T00:36:16.261Z,71.16
2023-01-18T00:38:42.855Z,70.72
2023-01-18T00:41:09.387Z,71.38
2023-01-18T00:43:41.720Z,71.42
2023-01-18T00:46:13.332Z,70.49
2023-01-18T00:48:40.982Z,70.85
2023-01-18T00:51:13.104Z,71.28
2023-01-18T00:53:40.419Z,71.63
2023-01-18T00:56:14.062Z,71.33
2023-01-18T00:58:40.946Z,71.20
2023-01-18T01:01:08.147Z,71.25
2023-01-18T01:03:54.686Z,70.02
2023-01-18T01:06:46.604Z,70.29
2023-01-18T01:09:19.350Z,70.43
2023-01-18T01:12:05.579Z,70.70
2023-01-18T01:14:54.243Z,71.07
2023-01-18T01:17:39.608Z,71.24
2023-01-18T01:20:25.774Z,70.89
2023-01-18T01:23:10.668Z,70.69
2023-01-18T01:25:56.650Z,70.94
2023-01-18T01:28:23.186Z,70.83
2023-01-18T01:30:49.836Z,71.26
2023-01-18T01:33:17.521Z,71.05
2023-01-18T01:35:44.378Z,70.81
2023-01-18T01:38:10.974Z,70.51
2023-01-18T01:40:37.519Z,70.38
2023-01-18T01:43:04.133Z,70.22
2023-01-18T01:45:32.353Z,69.50
2023-01-18T01:47:59.675Z,69.80
2023-01-18T01:50:38.863Z,69.93
2023-01-18T01:53:06.622Z,70.32
2023-01-18T01:55:37.123Z,69.90
2023-01-18T01:58:09.366Z,70.12
2023-01-18T02:00:35.873Z,70.00
2023-01-18T02:03:09.291Z,69.50
2023-01-18T02:05:42.613Z,69.56
2023-01-18T02:08:11.546Z,69.97
2023-01-18T02:10:38.584Z,70.59
2023-01-18T02:13:10.917Z,70.89
2023-01-18T02:15:43.262Z,70.77
2023-01-18T02:18:26.425Z,71.03
2023-01-18T02:21:13.167Z,71.28
2023-01-18T02:24:25.673Z,71.38
2023-01-18T02:27:06.036Z,71.75
2023-01-18T02:29:37.910Z,71.46
2023-01-18T02:32:18.859Z,71.45
2023-01-18T02:34:52.127Z,71.90
2023-01-18T02:37:40.747Z,72.17
2023-01-18T02:40:19.550Z,72.08
2023-01-18T02:43:05.920Z,71.83
2023-01-18T02:46:04.576Z,72.44
2023-01-18T02:48:38.462Z,71.97
2023-01-18T02:51:06.102Z,72.25
2023-01-18T02:53:38.624Z,72.44
2023-01-18T02:56:11.577Z,73.07
2023-01-18T02:58:47.790Z,72.67
2023-01-18T03:01:26.642Z,72.46
2023-01-18T03:03:58.731Z,73.13
2023-01-18T03:06:29.602Z,73.13
2023-01-18T03:08:58.539Z,73.20
2023-01-18T03:11:50.976Z,73.22
2023-01-18T03:14:39.197Z,73.48
2023-01-18T03:17:21.384Z,73.32
2023-01-18T03:20:07.812Z,73.73
2023-01-18T03:23:25.073Z,73.54
2023-01-18T03:25:55.595Z,73.42
2023-01-18T03:28:46.689Z,73.82
2023-01-18T03:31:37.424Z,73.75
2023-01-18T03:34:18.250Z,72.82
2023-01-18T03:36:47.852Z,72.25
2023-01-18T03:39:23.410Z,71.94
2023-01-18T03:41:54.699Z,72.50
2023-01-18T03:44:35.735Z,72.24
2023-01-18T03:47:04.883Z,71.42
2023-01-18T03:49:33.623Z,71.18
2023-01-18T03:52:21.497Z,72.45
2023-01-18T03:55:09.508Z,75.34
2023-01-18T03:57:45.934Z,76.11
2023-01-18T04:00:14.244Z,76.02
2023-01-18T04:02:47.038Z,75.79
2023-01-18T04:05:14.356Z,75.75
2023-01-18T04:07:41.231Z,75.83
2023-01-18T04:10:08.433Z,75.37
2023-01-18T04:12:35.072Z,74.46
2023-01-18T04:15:02.144Z,74.00
2023-01-18T04:17:28.862Z,73.29
2023-01-18T04:19:55.614Z,72.90
2023-01-18T04:22:23.181Z,72.64
2023-01-18T04:24:49.852Z,72.30
2023-01-18T04:27:16.474Z,71.66
2023-01-18T04:29:42.993Z,71.11
2023-01-18T04:32:09.520Z,70.32
2023-01-18T04:34:36.053Z,70.23
2023-01-18T04:37:02.670Z,71.14
2023-01-18T04:39:29.422Z,70.59
2023-01-18T04:41:57.273Z,71.17
2023-01-18T04:44:24.003Z,71.19
2023-01-18T04:46:51.154Z,70.97
2023-01-18T04:49:18.009Z,70.55
2023-01-18T04:51:46.002Z,70.31
2023-01-18T04:54:14.401Z,70.20
2023-01-18T04:56:41.223Z,70.10
2023-01-18T04:59:07.731Z,70.46
2023-01-18T05:01:35.737Z,70.39
2023-01-18T05:04:03.424Z,69.84
2023-01-18T05:06:30.039Z,70.36
2023-01-18T05:08:56.527Z,69.90
2023-01-18T05:11:23.314Z,70.12
2023-01-18T05:13:50.225Z,70.77
2023-01-18T05:16:20.475Z,70.75
2023-01-18T05:18:47.663Z,71.10
2023-01-18T05:21:14.627Z,71.13
2023-01-18T05:23:41.979Z,71.28
2023-01-18T05:26:15.275Z,71.06
2023-01-18T05:28:42.834Z,70.63
2023-01-18T05:31:09.392Z,71.60
2023-01-18T05:33:36.136Z,71.12
2023-01-18T05:36:02.820Z,71.22
2023-01-18T05:38:29.426Z,71.57
2023-01-18T05:40:56.069Z,71.03
2023-01-18T05:43:26.385Z,71.01
2023-01-18T05:45:53.701Z,71.28
2023-01-18T05:48:22.097Z,70.84
2023-01-18T05:50:49.116Z,71.54
2023-01-18T05:53:22.716Z,94.75
2023-01-18T05:56:01.206Z,90.42
2023-01-18T05:58:28.481Z,95.63
2023-01-18T06:00:56.750Z,71.54
2023-01-18T06:03:25.596Z,67.53
2023-01-18T06:05:52.792Z,67.49
2023-01-18T06:08:19.949Z,68.08
2023-01-18T06:10:57.463Z,68.86
2023-01-18T06:13:28.008Z,69.55
2023-01-18T06:15:55.705Z,70.64
2023-01-18T06:18:23.717Z,69.84
2023-01-18T06:20:54.204Z,70.23
2023-01-18T06:23:21.350Z,70.22
2023-01-18T06:25:47.820Z,70.38
2023-01-18T06:28:16.213Z,70.58
2023-01-18T06:30:42.902Z,70.31
2023-01-18T06:33:12.250Z,70.82
2023-01-18T06:35:39.716Z,70.32
2023-01-18T06:38:07.161Z,70.12
2023-01-18T06:40:33.658Z,69.60
2023-01-18T06:43:00.663Z,69.54
2023-01-18T06:45:29.313Z,70.24
2023-01-18T06:47:56.243Z,70.02
2023-01-18T06:50:26.489Z,69.72
2023-01-18T06:52:53.772Z,68.66
2023-01-18T06:55:20.282Z,69.54
2023-01-18T06:57:49.149Z,68.84
2023-01-18T07:00:17.760Z,68.64
2023-01-18T07:02:44.698Z,68.79
2023-01-18T07:05:11.225Z,68.66
2023-01-18T07:07:37.854Z,68.72
2023-01-18T07:10:04.878Z,67.90
2023-01-18T07:12:33.542Z,68.31
2023-01-18T07:15:09.891Z,68.67
2023-01-18T07:17:46.853Z,67.96
2023-01-18T07:20:16.409Z,68.58
2023-01-18T07:22:42.912Z,67.72
2023-01-18T07:25:21.118Z,67.54
2023-01-18T07:27:49.095Z,67.51
2023-01-18T07:30:16.321Z,67.65
2023-01-18T07:32:52.518Z,67.14
2023-01-18T07:35:24.105Z,67.02
2023-01-18T07:37:53.045Z,67.09
2023-01-18T07:40:22.285Z,66.70
2023-01-18T07:42:57.858Z,66.53
2023-01-18T07:45:26.349Z,67.28
2023-01-18T07:47:53.627Z,66.38
2023-01-18T07:50:21.899Z,66.49
2023-01-18T07:52:48.480Z,66.11
2023-01-18T07:55:16.211Z,65.92
2023-01-18T07:57:45.020Z,66.14
2023-01-18T08:00:13.283Z,66.06
2023-01-18T08:02:41.299Z,66.33
2023-01-18T08:05:10.579Z,66.03
2023-01-18T08:07:37.522Z,65.94
2023-01-18T08:10:04.399Z,66.06
2023-01-18T08:12:31.161Z,66.16
2023-01-18T08:14:57.723Z,65.82
2023-01-18T08:17:24.371Z,65.27
2023-01-18T08:19:51.337Z,65.46
2023-01-18T08:22:18.227Z,65.16
2023-01-18T08:24:45.169Z,64.58
2023-01-18T08:27:13.122Z,64.59
2023-01-18T08:29:39.719Z,64.49
2023-01-18T08:32:07.676Z,63.53
2023-01-18T08:34:34.168Z,64.40
2023-01-18T08:37:04.043Z,63.73
2023-01-18T08:39:31.918Z,63.59
2023-01-18T08:41:58.782Z,64.46
2023-01-18T08:44:26.846Z,64.02
2023-01-18T08:46:54.783Z,64.32
2023-01-18T08:49:21.302Z,63.77
2023-01-18T08:51:49.203Z,63.48
2023-01-18T08:54:17.544Z,62.96
2023-01-18T08:56:45.287Z,63.53
2023-01-18T08:59:12.928Z,63.93
2023-01-18T09:01:40.693Z,64.49
2023-01-18T09:04:09.063Z,64.13
2023-01-18T09:06:36.766Z,63.96
2023-01-18T09:09:05.791Z,63.11
2023-01-18T09:11:33.623Z,63.97
2023-01-18T09:14:02.255Z,63.15
2023-01-18T09:16:31.597Z,62.69
2023-01-18T09:18:58.856Z,61.70
2023-01-18T09:21:29.094Z,61.03
2023-01-18T09:23:56.998Z,60.90
2023-01-18T09:26:25.041Z,61.30
2023-01-18T09:28:53.032Z,61.25
2023-01-18T09:31:23.356Z,60.03
2023-01-18T09:33:54.034Z,59.59
2023-01-18T09:36:26.455Z,59.54
2023-01-18T09:38:55.529Z,59.83
2023-01-18T09:41:30.294Z,59.21
2023-01-18T09:44:12.057Z,59.05
2023-01-18T09:46:41.920Z,58.72
2023-01-18T09:49:18.737Z,59.04
2023-01-18T09:52:07.505Z,58.84
2023-01-18T09:54:49.061Z,57.85
2023-01-18T09:57:41.631Z,58.20
2023-01-18T10:00:23.908Z,57.55
2023-01-18T10:03:19.343Z,57.53
2023-01-18T10:06:09.271Z,57.33
2023-01-18T10:08:52.246Z,57.44
2023-01-18T10:11:31.293Z,57.51
2023-01-18T10:14:09.069Z,57.27
2023-01-18T10:16:37.923Z,57.48
2023-01-18T10:19:17.275Z,57.08
2023-01-18T10:21:54.987Z,57.20
2023-01-18T10:24:37.017Z,55.87
2023-01-18T10:27:19.294Z,56.91
2023-01-18T10:29:53.403Z,55.98
2023-01-18T10:32:23.637Z,56.22
2023-01-18T10:34:51.917Z,56.75
2023-01-18T10:37:45.419Z,56.86
2023-01-18T10:40:14.676Z,56.35
2023-01-18T10:42:45.937Z,56.00
2023-01-18T10:45:34.571Z,55.67
2023-01-18T10:48:29.514Z,54.72
2023-01-18T10:50:59.986Z,55.39
2023-01-18T10:53:34.000Z,56.12
2023-01-18T10:56:09.620Z,54.85
2023-01-18T10:58:52.153Z,55.95
2023-01-18T11:01:25.308Z,55.97
2023-01-18T11:03:57.787Z,56.33
2023-01-18T11:06:26.369Z,56.91
2023-01-18T11:08:53.589Z,56.11
2023-01-18T11:11:52.145Z,56.77
2023-01-18T11:14:26.567Z,57.10
2023-01-18T11:17:11.470Z,57.60
2023-01-18T11:19:38.982Z,58.18
2023-01-18T11:22:17.374Z,58.70
2023-01-18T11:24:44.082Z,57.81
2023-01-18T11:27:21.306Z,58.20
2023-01-18T11:29:48.009Z,56.09
2023-01-18T11:32:34.840Z,57.71
2023-01-18T11:35:10.244Z,57.98
2023-01-18T11:37:40.028Z,55.98
2023-01-18T11:40:28.212Z,56.86
2023-01-18T11:43:03.823Z,56.44
2023-01-18T11:45:46.066Z,57.63
2023-01-18T11:48:40.604Z,59.12
2023-01-18T11:51:26.460Z,57.38
2023-01-18T11:54:14.137Z,57.97
2023-01-18T11:56:47.077Z,57.47
2023-01-18T11:59:29.538Z,55.89
2023-01-18T12:02:31.006Z,57.27
2023-01-18T12:05:13.651Z,58.13
2023-01-18T12:08:18.034Z,57.65
2023-01-18T12:11:41.352Z,55.94
2023-01-18T12:14:27.236Z,56.01
2023-01-18T12:17:25.716Z,56.65
2023-01-18T12:20:04.433Z,54.52
2023-01-18T12:22:50.111Z,57.03
2023-01-18T12:25:19.690Z,57.71
2023-01-18T12:28:16.874Z,56.34
2023-01-18T12:31:18.045Z,56.88
2023-01-18T12:34:06.700Z,57.26
2023-01-18T12:37:01.658Z,56.67
2023-01-18T12:40:10.075Z,55.97
2023-01-18T12:42:56.773Z,54.88
2023-01-18T12:45:41.334Z,55.11
2023-01-18T12:48:32.985Z,54.91
2023-01-18T12:51:11.275Z,54.85
2023-01-18T12:53:57.101Z,55.98
2023-01-18T12:56:33.163Z,55.48
2023-01-18T12:59:04.772Z,53.79
2023-01-18T13:01:40.584Z,53.73
2023-01-18T13:04:17.645Z,54.52
2023-01-18T13:06:51.428Z,55.86
2023-01-18T13:09:23.237Z,55.28
2023-01-18T13:11:50.316Z,54.29
2023-01-18T13:14:25.970Z,53.91
2023-01-18T13:17:13.565Z,53.73
2023-01-18T13:19:57.067Z,54.23
2023-01-18T13:23:00.559Z,54.87
2023-01-18T13:25:48.895Z,54.51
2023-01-18T13:28:23.371Z,55.61
2023-01-18T13:30:56.708Z,53.48
2023-01-18T13:33:29.125Z,53.64
2023-01-18T13:36:03.129Z,53.32
2023-01-18T13:38:40.935Z,54.79
2023-01-18T13:41:11.617Z,54.62
2023-01-18T13:43:40.569Z,54.10
2023-01-18T13:46:08.223Z,53.50
2023-01-18T13:48:59.146Z,53.66
2023-01-18T13:51:41.677Z,52.49
2023-01-18T13:54:10.355Z,52.75
2023-01-18T13:56:38.843Z,52.83
2023-01-18T13:59:11.707Z,52.11
2023-01-18T14:01:40.717Z,50.54
2023-01-18T14:04:22.334Z,50.99
2023-01-18T14:06:51.883Z,50.56
2023-01-18T14:09:33.284Z,49.82
2023-01-18T14:12:00.511Z,50.58
2023-01-18T14:14:31.458Z,51.45
2023-01-18T14:17:15.946Z,51.71
2023-01-18T14:19:48.866Z,52.33
2023-01-18T14:22:39.109Z,53.68
2023-01-18T14:25:40.315Z,54.21
2023-01-18T14:28:26.118Z,53.93
2023-01-18T14:30:59.524Z,52.63
2023-01-18T14:33:37.322Z,52.66
2023-01-18T14:36:08.593Z,52.24
2023-01-18T14:38:36.500Z,50.99
2023-01-18T14:41:05.693Z,51.87
2023-01-18T14:43:46.379Z,50.73
2023-01-18T14:46:23.501Z,50.74
2023-01-18T14:48:54.756Z,51.31
2023-01-18T14:51:26.733Z,51.27
2023-01-18T14:53:58.394Z,51.97
2023-01-18T14:56:28.041Z,52.15
2023-01-18T14:58:57.582Z,51.13
2023-01-18T15:01:24.148Z,49.89
2023-01-18T15:03:56.106Z,51.19
2023-01-18T15:06:42.206Z,51.70
2023-01-18T15:09:10.756Z,51.96
2023-01-18T15:11:39.339Z,52.31
2023-01-18T15:14:15.726Z,51.87
2023-01-18T15:16:42.803Z,51.25
2023-01-18T15:19:18.104Z,51.55
2023-01-18T15:21:46.032Z,51.30
2023-01-18T15:24:25.254Z,52.36
2023-01-18T15:26:57.353Z,52.02
2023-01-18T15:29:36.086Z,52.29
2023-01-18T15:32:21.494Z,52.65
2023-01-18T15:34:50.262Z,52.19
2023-01-18T15:37:24.350Z,52.92
2023-01-18T15:39:58.467Z,52.85
2023-01-18T15:42:36.936Z,53.13
2023-01-18T15:45:04.285Z,53.40
2023-01-18T15:47:36.650Z,54.22
2023-01-18T15:50:15.048Z,53.82
2023-01-18T15:52:47.560Z,54.10
2023-01-18T15:55:23.230Z,54.42
2023-01-18T15:58:01.027Z,54.14
2023-01-18T16:01:00.439Z,54.42
2023-01-18T16:03:48.418Z,55.22
2023-01-18T16:06:37.402Z,55.05
2023-01-18T16:09:12.136Z,55.94
2023-01-18T16:11:57.668Z,56.37
2023-01-18T16:14:28.318Z,55.81
2023-01-18T16:16:55.185Z,56.06
2023-01-18T16:19:36.423Z,56.88
2023-01-18T16:22:09.672Z,57.58
2023-01-18T16:24:47.416Z,58.19
2023-01-18T16:27:24.403Z,58.80
2023-01-18T16:29:53.730Z,59.57
2023-01-18T16:32:28.781Z,59.77
2023-01-18T16:35:03.577Z,60.42
2023-01-18T16:37:30.658Z,61.50
2023-01-18T16:39:57.751Z,61.55
2023-01-18T16:42:36.941Z,61.54
2023-01-18T16:45:05.282Z,62.23
2023-01-18T16:47:31.896Z,61.75
2023-01-18T16:50:00.986Z,62.40
2023-01-18T16:52:28.345Z,62.84
2023-01-18T16:54:54.849Z,62.80
2023-01-18T16:57:23.878Z,62.45
2023-01-18T16:59:50.755Z,63.17
2023-01-18T17:02:17.584Z,62.44
2023-01-18T17:04:45.707Z,62.51
2023-01-18T17:07:13.183Z,63.34
2023-01-18T17:09:48.370Z,63.13
2023-01-18T17:12:16.051Z,63.19
2023-01-18T17:14:42.617Z,63.80
2023-01-18T17:17:10.457Z,64.01
2023-01-18T17:19:37.955Z,64.37
2023-01-18T17:22:07.348Z,65.04
2023-01-18T17:24:33.977Z,65.19
2023-01-18T17:27:01.549Z,65.80
2023-01-18T17:29:28.507Z,66.08
2023-01-18T17:31:58.328Z,65.73
2023-01-18T17:34:28.224Z,65.69
2023-01-18T17:36:58.296Z,65.84
2023-01-18T17:39:36.921Z,65.88
2023-01-18T17:42:19.232Z,66.15
2023-01-18T17:44:51.337Z,66.33
2023-01-18T17:47:17.823Z,67.25
2023-01-18T17:49:44.358Z,67.05
2023-01-18T17:52:12.986Z,66.39
2023-01-18T17:54:43.569Z,67.37
2023-01-18T17:57:11.159Z,67.38
2023-01-18T17:59:41.033Z,67.90
2023-01-18T18:02:11.673Z,68.63
2023-01-18T18:04:38.816Z,68.79
2023-01-18T18:07:08.268Z,69.53
2023-01-18T18:09:40.446Z,69.59
2023-01-18T18:12:10.738Z,69.20
2023-01-18T18:14:38.374Z,69.98
2023-01-18T18:17:06.188Z,69.85
2023-01-18T18:19:33.527Z,69.40
2023-01-18T18:22:01.295Z,69.55
2023-01-18T18:24:31.460Z,69.03
2023-01-18T18:26:58.104Z,69.13
2023-01-18T18:29:24.744Z,69.66
2023-01-18T18:31:51.601Z,68.76
2023-01-18T18:34:18.309Z,68.53
2023-01-18T18:36:46.016Z,68.85
2023-01-18T18:39:14.876Z,68.61
2023-01-18T18:41:44.069Z,68.77
2023-01-18T18:44:11.437Z,69.73
2023-01-18T18:46:39.720Z,69.78
2023-01-18T18:49:13.482Z,69.62
2023-01-18T18:51:44.466Z,69.57
2023-01-18T18:54:11.909Z,69.63
2023-01-18T18:56:38.675Z,70.16
2023-01-18T18:59:12.592Z,69.85
2023-01-18T19:01:39.367Z,69.36
2023-01-18T19:04:06.063Z,69.47
2023-01-18T19:06:32.714Z,69.33
2023-01-18T19:08:59.232Z,69.72
2023-01-18T19:11:25.973Z,69.52
2023-01-18T19:13:54.965Z,69.56
2023-01-18T19:16:21.700Z,70.56
2023-01-18T19:18:48.255Z,70.42
2023-01-18T19:21:14.882Z,69.97
2023-01-18T19:23:41.446Z,70.44
2023-01-18T19:26:09.173Z,70.46
2023-01-18T19:28:36.051Z,70.37
2023-01-18T19:31:04.826Z,70.56
2023-01-18T19:33:31.588Z,70.25
2023-01-18T19:36:13.117Z,70.19
2023-01-18T19:38:45.749Z,70.49
2023-01-18T19:41:13.701Z,70.15
2023-01-18T19:43:40.678Z,70.90
2023-01-18T19:46:08.985Z,71.07
2023-01-18T19:48:37.838Z,70.86
2023-01-18T19:51:21.798Z,71.05
2023-01-18T19:53:49.947Z,71.04
2023-01-18T19:56:16.537Z,70.85
2023-01-18T19:58:43.365Z,71.80
2023-01-18T20:01:16.256Z,72.44
2023-01-18T20:03:46.475Z,71.81
2023-01-18T20:06:18.965Z,72.63
2023-01-18T20:08:45.925Z,73.14
2023-01-18T20:11:14.952Z,73.61
2023-01-18T20:13:46.882Z,74.22
2023-01-18T20:16:13.408Z,74.71
2023-01-18T20:18:40.091Z,75.12
2023-01-18T20:21:13.947Z,75.83
2023-01-18T20:23:42.244Z,76.07
2023-01-18T20:26:08.866Z,74.40
2023-01-18T20:28:38.180Z,74.39
2023-01-18T20:31:14.145Z,73.96
2023-01-18T20:33:53.908Z,74.90
2023-01-18T20:36:20.369Z,74.52
2023-01-18T20:38:46.816Z,74.60
2023-01-18T20:41:14.476Z,73.91
2023-01-18T20:43:41.188Z,73.25
2023-01-18T20:46:10.268Z,73.34
2023-01-18T20:48:38.069Z,73.24
2023-01-18T20:51:06.955Z,73.49
2023-01-18T20:53:33.943Z,73.01
2023-01-18T20:56:23.288Z,72.82
2023-01-18T20:58:53.869Z,72.16
2023-01-18T21:01:20.467Z,72.11
2023-01-18T21:03:53.662Z,72.96
2023-01-18T21:06:20.409Z,72.99
2023-01-18T21:08:46.892Z,73.25
2023-01-18T21:11:14.901Z,73.77
2023-01-18T21:13:41.399Z,73.33
2023-01-18T21:16:07.963Z,73.41
2023-01-18T21:18:34.513Z,73.22
2023-01-18T21:21:01.185Z,72.78
2023-01-18T21:23:27.978Z,72.28
2023-01-18T21:25:59.735Z,72.46
2023-01-18T21:28:26.587Z,72.13
2023-01-18T21:30:55.654Z,72.18
2023-01-18T21:33:23.629Z,72.48
2023-01-18T21:35:51.825Z,71.85
2023-01-18T21:38:18.744Z,72.49
2023-01-18T21:40:45.445Z,72.09
2023-01-18T21:43:40.546Z,72.49
2023-01-18T21:46:10.779Z,72.94
2023-01-18T21:48:37.325Z,72.37
2023-01-18T21:51:23.735Z,72.80
2023-01-18T21:54:14.760Z,72.69
2023-01-18T21:56:42.367Z,72.97
2023-01-18T21:59:08.869Z,73.53
2023-01-18T22:01:39.528Z,73.39
2023-01-18T22:04:28.226Z,73.31
2023-01-18T22:07:00.312Z,73.50
2023-01-18T22:09:28.729Z,73.28
2023-01-18T22:11:59.564Z,73.26
2023-01-18T22:14:26.357Z,73.32
2023-01-18T22:16:53.303Z,73.14
2023-01-18T22:19:19.934Z,73.09
2023-01-18T22:21:47.101Z,73.46
2023-01-18T22:24:14.085Z,72.88
2023-01-18T22:26:41.219Z,72.78
2023-01-18T22:29:08.434Z,73.36
2023-01-18T22:31:35.529Z,73.28
2023-01-18T22:34:04.417Z,72.27
2023-01-18T22:36:31.329Z,72.10
2023-01-18T22:38:58.051Z,73.26
2023-01-18T22:41:27.410Z,74.06
2023-01-18T22:43:55.120Z,74.44
2023-01-18T22:46:23.299Z,74.23
2023-01-18T22:48:50.500Z,74.47
2023-01-18T22:51:20.649Z,74.10
2023-01-18T22:53:47.904Z,74.54
2023-01-18T22:56:17.270Z,73.79
2023-01-18T22:58:43.848Z,74.60
2023-01-18T23:01:21.933Z,74.22
2023-01-18T23:03:50.224Z,74.04
2023-01-18T23:06:17.875Z,73.38
2023-01-18T23:08:45.996Z,74.08
2023-01-18T23:11:19.332Z,74.16
2023-01-18T23:14:14.920Z,74.10
2023-01-18T23:17:00.939Z,73.89
2023-01-18T23:19:29.699Z,74.47
2023-01-18T23:21:57.965Z,74.98
2023-01-18T23:24:25.410Z,74.53
2023-01-18T23:26:51.990Z,75.38
2023-01-18T23:29:18.753Z,76.17
2023-01-18T23:31:46.697Z,75.68
2023-01-18T23:34:13.251Z,74.01
2023-01-18T23:36:39.887Z,74.45
2023-01-18T23:39:24.902Z,74.18
2023-01-18T23:42:10.190Z,74.40
2023-01-18T23:44:55.522Z,73.48
2023-01-18T23:47:41.281Z,73.75
2023-01-18T23:50:27.368Z,73.16
2023-01-18T23:53:12.458Z,73.08
2023-01-18T23:55:39.194Z,73.98
2023-01-18T23:58:05.640Z,74.02
